createdAt,value
2018-07-28T00:01:17.307Z,1.30
2018-07-28T00:03:46.106Z,1.27
2018-07-28T00:06:15.055Z,1.37
2018-07-28T00:08:43.979Z,1.27
2018-07-28T00:11:12.832Z,1.30
2018-07-28T00:13:41.676Z,1.77
2018-07-28T00:16:10.514Z,1.90
2018-07-28T00:18:39.333Z,2.00
2018-07-28T00:21:08.122Z,2.07
2018-07-28T00:23:36.902Z,1.77
2018-07-28T00:26:10.896Z,1.40
2018-07-28T00:28:39.676Z,1.70
2018-07-28T00:31:08.502Z,1.67
2018-07-28T00:33:37.341Z,1.40
2018-07-28T00:36:06.117Z,1.20
2018-07-28T00:38:34.925Z,1.70
2018-07-28T00:41:03.843Z,1.43
2018-07-28T00:43:32.636Z,1.57
2018-07-28T00:46:01.439Z,1.30
2018-07-28T00:48:30.270Z,1.67
2018-07-28T00:50:59.041Z,1.40
2018-07-28T00:53:27.813Z,1.30
2018-07-28T00:55:56.660Z,1.30
2018-07-28T00:58:25.462Z,1.67
2018-07-28T01:00:54.229Z,1.50
2018-07-28T01:03:23.108Z,1.50
2018-07-28T01:05:51.925Z,1.60
2018-07-28T01:08:20.704Z,1.47
2018-07-28T01:10:49.488Z,1.63
2018-07-28T01:13:18.289Z,1.50
2018-07-28T01:15:47.115Z,1.83
2018-07-28T01:18:15.916Z,1.57
2018-07-28T01:20:44.765Z,1.93
2018-07-28T01:23:13.561Z,1.70
2018-07-28T01:25:42.395Z,1.50
2018-07-28T01:28:11.232Z,1.53
2018-07-28T01:30:39.985Z,1.40
2018-07-28T01:33:08.960Z,1.50
2018-07-28T01:35:37.854Z,1.73
2018-07-28T01:38:06.663Z,1.60
2018-07-28T01:40:35.495Z,1.90
2018-07-28T01:43:04.322Z,1.57
2018-07-28T01:45:33.121Z,2.00
2018-07-28T01:48:01.931Z,1.30
2018-07-28T01:50:30.705Z,1.63
2018-07-28T01:52:59.511Z,1.67
2018-07-28T01:55:28.304Z,1.70
2018-07-28T01:57:57.115Z,1.90
2018-07-28T02:00:25.982Z,1.60
2018-07-28T02:02:54.776Z,1.70
2018-07-28T02:05:23.615Z,1.80
2018-07-28T02:07:52.420Z,1.33
2018-07-28T02:10:21.309Z,1.67
2018-07-28T02:12:50.125Z,1.70
2018-07-28T02:15:18.930Z,1.60
2018-07-28T02:17:47.819Z,1.87
2018-07-28T02:20:16.629Z,1.70
2018-07-28T02:22:45.406Z,1.60
2018-07-28T02:25:14.208Z,1.77
2018-07-28T02:27:42.982Z,1.70
2018-07-28T02:30:11.764Z,1.40
2018-07-28T02:32:40.570Z,1.53
2018-07-28T02:35:09.579Z,1.80
2018-07-28T02:37:38.513Z,1.50
2018-07-28T02:40:07.493Z,1.60
2018-07-28T02:42:36.333Z,1.60
2018-07-28T02:45:05.470Z,1.50
2018-07-28T02:47:34.309Z,1.60
2018-07-28T02:50:03.093Z,1.63
2018-07-28T02:52:31.871Z,1.70
2018-07-28T02:55:00.669Z,1.97
2018-07-28T02:57:29.500Z,1.73
2018-07-28T02:59:58.253Z,1.73
2018-07-28T03:02:27.051Z,1.53
2018-07-28T03:04:55.846Z,1.87
2018-07-28T03:07:24.646Z,1.60
2018-07-28T03:09:53.432Z,1.83
2018-07-28T03:12:22.230Z,1.80
2018-07-28T03:14:51.018Z,1.57
2018-07-28T03:17:19.857Z,2.00
2018-07-28T03:19:48.622Z,1.87
2018-07-28T03:22:17.437Z,1.50
2018-07-28T03:24:46.226Z,1.70
2018-07-28T03:27:15.032Z,1.60
2018-07-28T03:29:43.833Z,2.00
2018-07-28T03:32:12.624Z,1.60
2018-07-28T03:34:41.443Z,1.60
2018-07-28T03:37:10.264Z,1.70
2018-07-28T03:39:39.047Z,2.07
2018-07-28T03:42:07.870Z,1.77
2018-07-28T03:44:36.683Z,1.73
2018-07-28T03:47:05.510Z,1.77
2018-07-28T03:49:34.267Z,1.63
2018-07-28T03:52:03.020Z,1.60
2018-07-28T03:54:31.801Z,1.70
2018-07-28T03:57:00.600Z,1.80
2018-07-28T03:59:29.381Z,1.63
2018-07-28T04:01:58.186Z,1.60
2018-07-28T04:04:27.006Z,1.73
2018-07-28T04:06:55.761Z,1.90
2018-07-28T04:09:24.526Z,1.47
2018-07-28T04:11:53.302Z,1.90
2018-07-28T04:14:22.073Z,1.70
2018-07-28T04:16:50.885Z,1.97
2018-07-28T04:19:19.673Z,2.00
2018-07-28T04:21:48.457Z,2.13
2018-07-28T04:24:17.230Z,1.87
2018-07-28T04:26:46.071Z,2.10
2018-07-28T04:29:14.837Z,2.40
2018-07-28T04:31:43.629Z,2.23
2018-07-28T04:34:12.390Z,1.67
2018-07-28T04:36:41.228Z,2.00
2018-07-28T04:39:12.168Z,1.90
2018-07-28T04:41:41.534Z,2.00
2018-07-28T04:44:10.617Z,1.70
2018-07-28T04:46:39.423Z,1.97
2018-07-28T04:49:08.720Z,1.70
2018-07-28T04:51:38.122Z,2.10
2018-07-28T04:54:06.909Z,2.00
2018-07-28T04:56:35.724Z,2.10
2018-07-28T04:59:04.508Z,2.43
2018-07-28T05:01:33.302Z,2.40
2018-07-28T05:04:02.137Z,2.17
2018-07-28T05:06:30.965Z,2.47
2018-07-28T05:08:59.753Z,2.97
2018-07-28T05:11:28.530Z,2.63
2018-07-28T05:13:57.333Z,2.60
2018-07-28T05:16:26.149Z,2.97
2018-07-28T05:18:54.957Z,2.77
2018-07-28T05:21:23.750Z,2.70
2018-07-28T05:23:52.662Z,2.60
2018-07-28T05:26:21.361Z,2.60
2018-07-28T05:28:50.271Z,2.70
2018-07-28T05:31:21.016Z,3.40
2018-07-28T05:33:49.794Z,3.20
2018-07-28T05:36:18.610Z,3.20
2018-07-28T05:38:47.585Z,3.20
2018-07-28T05:41:16.390Z,2.90
2018-07-28T05:43:45.269Z,2.50
2018-07-28T05:46:14.237Z,3.30
2018-07-28T05:48:43.291Z,3.27
2018-07-28T05:51:12.309Z,3.57
2018-07-28T05:53:41.101Z,3.70
2018-07-28T05:56:11.715Z,3.33
2018-07-28T05:58:41.576Z,3.70
2018-07-28T06:01:10.428Z,3.40
2018-07-28T06:03:39.209Z,3.47
2018-07-28T06:06:08.060Z,3.67
2018-07-28T06:08:36.867Z,3.90
2018-07-28T06:11:05.682Z,4.00
2018-07-28T06:13:34.507Z,3.57
2018-07-28T06:16:03.351Z,3.57
2018-07-28T06:18:32.114Z,3.87
2018-07-28T06:21:00.913Z,4.23
2018-07-28T06:23:29.738Z,4.03
2018-07-28T06:25:58.538Z,3.90
2018-07-28T06:28:27.350Z,4.70
2018-07-28T06:30:56.170Z,4.70
2018-07-28T06:33:24.929Z,4.47
2018-07-28T06:35:53.765Z,4.60
2018-07-28T06:38:22.565Z,4.60
2018-07-28T06:40:51.354Z,4.60
2018-07-28T06:43:20.135Z,5.63
2018-07-28T06:45:48.937Z,4.80
2018-07-28T06:48:17.717Z,4.53
2018-07-28T06:50:46.592Z,5.13
2018-07-28T06:53:15.412Z,4.73
2018-07-28T06:55:44.154Z,5.07
2018-07-28T06:58:12.918Z,5.00
2018-07-28T07:00:41.709Z,5.53
2018-07-28T07:03:10.450Z,5.27
2018-07-28T07:05:39.201Z,6.07
2018-07-28T07:08:08.143Z,5.83
2018-07-28T07:10:36.937Z,6.67
2018-07-28T07:13:05.787Z,7.10
2018-07-28T07:15:34.678Z,6.37
2018-07-28T07:18:03.471Z,6.70
2018-07-28T07:20:32.227Z,7.20
2018-07-28T07:23:00.998Z,7.90
2018-07-28T07:25:29.823Z,7.43
2018-07-28T07:27:58.625Z,7.73
2018-07-28T07:30:27.515Z,7.03
2018-07-28T07:32:56.349Z,6.93
2018-07-28T07:35:25.776Z,6.40
2018-07-28T07:37:54.585Z,7.00
2018-07-28T07:40:23.419Z,6.97
2018-07-28T07:42:52.256Z,6.37
2018-07-28T07:45:21.159Z,6.63
2018-07-28T07:47:49.974Z,7.40
2018-07-28T07:50:18.805Z,6.47
2018-07-28T07:52:47.609Z,7.20
2018-07-28T07:55:16.421Z,6.63
2018-07-28T07:57:45.301Z,7.40
2018-07-28T08:00:14.163Z,7.50
2018-07-28T08:02:43.014Z,8.13
2018-07-28T08:05:11.815Z,8.13
2018-07-28T08:07:40.645Z,8.30
2018-07-28T08:10:09.509Z,8.00
2018-07-28T08:12:38.353Z,8.30
2018-07-28T08:15:07.553Z,9.17
2018-07-28T08:17:36.396Z,9.30
2018-07-28T08:20:05.865Z,10.03
2018-07-28T08:22:34.713Z,9.80
2018-07-28T08:25:04.382Z,8.73
2018-07-28T08:27:33.232Z,8.23
2018-07-28T08:30:02.063Z,10.17
2018-07-28T08:32:30.933Z,10.97
2018-07-28T08:34:59.681Z,10.40
2018-07-28T08:37:28.610Z,10.87
2018-07-28T08:39:57.424Z,11.37
2018-07-28T08:42:26.262Z,9.97
2018-07-28T08:44:55.054Z,10.67
2018-07-28T08:47:23.820Z,10.07
2018-07-28T08:49:52.619Z,10.53
2018-07-28T08:52:21.450Z,10.33
2018-07-28T08:54:50.281Z,11.37
2018-07-28T08:57:19.100Z,11.53
2018-07-28T08:59:47.904Z,11.30
2018-07-28T09:02:16.670Z,11.40
2018-07-28T09:04:45.418Z,11.00
2018-07-28T09:07:14.353Z,11.30
2018-07-28T09:09:43.144Z,11.40
2018-07-28T09:12:11.965Z,11.00
2018-07-28T09:14:40.742Z,11.17
2018-07-28T09:17:09.532Z,10.77
2018-07-28T09:19:38.316Z,11.37
2018-07-28T09:22:07.117Z,11.37
2018-07-28T09:24:35.905Z,11.20
2018-07-28T09:27:04.804Z,11.77
2018-07-28T09:29:33.590Z,11.37
2018-07-28T09:32:02.346Z,12.07
2018-07-28T09:34:31.135Z,11.97
2018-07-28T09:36:59.900Z,11.77
2018-07-28T09:39:28.714Z,11.30
2018-07-28T09:41:57.484Z,10.83
2018-07-28T09:44:26.231Z,11.53
2018-07-28T09:46:55.026Z,11.17
2018-07-28T09:49:23.844Z,11.13
2018-07-28T09:51:52.612Z,11.83
2018-07-28T09:54:21.375Z,11.00
2018-07-28T09:56:50.174Z,10.90
2018-07-28T09:59:18.981Z,11.20
2018-07-28T10:01:47.743Z,11.17
2018-07-28T10:04:16.525Z,11.23
2018-07-28T10:07:04.042Z,10.87
2018-07-28T10:09:32.865Z,11.33
2018-07-28T10:12:01.648Z,10.87
2018-07-28T10:14:30.429Z,11.80
2018-07-28T10:16:59.238Z,11.63
2018-07-28T10:19:28.006Z,11.63
2018-07-28T10:21:56.797Z,11.90
2018-07-28T10:24:25.573Z,11.27
2018-07-28T10:26:54.330Z,12.37
2018-07-28T10:29:23.345Z,11.37
2018-07-28T10:31:52.137Z,11.97
2018-07-28T10:34:20.899Z,12.20
2018-07-28T10:36:49.682Z,12.70
2018-07-28T10:39:18.466Z,12.47
2018-07-28T10:41:47.250Z,10.10
2018-07-28T10:44:16.064Z,11.83
2018-07-28T10:46:44.841Z,12.63
2018-07-28T10:49:13.649Z,13.20
2018-07-28T10:51:42.444Z,13.30
2018-07-28T10:54:11.229Z,12.37
2018-07-28T10:56:40.011Z,13.37
2018-07-28T10:59:08.857Z,13.50
2018-07-28T11:01:37.675Z,12.93
2018-07-28T11:04:06.800Z,13.27
2018-07-28T11:06:35.624Z,12.77
2018-07-28T11:09:06.181Z,13.50
2018-07-28T11:11:34.958Z,13.03
2018-07-28T11:14:03.892Z,13.63
2018-07-28T11:16:32.645Z,13.13
2018-07-28T11:19:01.515Z,12.77
2018-07-28T11:21:30.647Z,13.57
2018-07-28T11:24:00.712Z,14.10
2018-07-28T11:26:29.513Z,13.13
2018-07-28T11:28:58.382Z,13.00
2018-07-28T11:31:38.096Z,13.03
2018-07-28T11:34:17.872Z,13.17
2018-07-28T11:36:57.695Z,13.60
2018-07-28T11:39:37.664Z,12.87
2018-07-28T11:42:17.305Z,13.73
2018-07-28T11:45:01.990Z,13.13
2018-07-28T11:47:30.776Z,13.00
2018-07-28T11:49:59.541Z,13.67
2018-07-28T11:52:28.346Z,14.37
2018-07-28T11:54:57.119Z,13.87
2018-07-28T11:57:25.972Z,13.57
2018-07-28T11:59:54.806Z,13.87
2018-07-28T12:02:23.587Z,13.60
2018-07-28T12:04:52.480Z,14.00
2018-07-28T12:07:21.639Z,14.10
2018-07-28T12:09:50.418Z,14.97
2018-07-28T12:12:19.216Z,14.23
2018-07-28T12:14:47.993Z,14.37
2018-07-28T12:17:16.815Z,13.33
2018-07-28T12:19:45.589Z,13.80
2018-07-28T12:22:14.466Z,13.17
2018-07-28T12:24:43.278Z,13.77
2018-07-28T12:27:12.107Z,14.70
2018-07-28T12:29:41.238Z,14.17
2018-07-28T12:32:10.217Z,14.53
2018-07-28T12:34:39.049Z,13.27
2018-07-28T12:37:07.883Z,13.60
2018-07-28T12:39:36.678Z,14.33
2018-07-28T12:42:05.531Z,13.57
2018-07-28T12:44:34.305Z,14.20
2018-07-28T12:47:03.092Z,13.03
2018-07-28T12:49:31.881Z,13.07
2018-07-28T12:52:00.653Z,12.10
2018-07-28T12:54:29.440Z,12.47
2018-07-28T12:56:58.221Z,13.03
2018-07-28T12:59:26.985Z,12.73
2018-07-28T13:01:55.790Z,12.63
2018-07-28T13:04:24.562Z,13.13
2018-07-28T13:06:53.529Z,12.90
2018-07-28T13:09:22.329Z,12.90
2018-07-28T13:11:51.126Z,13.50
2018-07-28T13:14:19.902Z,13.07
2018-07-28T13:16:48.724Z,13.23
2018-07-28T13:19:17.574Z,14.20
2018-07-28T13:21:46.414Z,13.17
2018-07-28T13:24:15.247Z,13.27
2018-07-28T13:26:44.081Z,12.70
2018-07-28T13:29:12.903Z,14.30
2018-07-28T13:31:41.742Z,13.43
2018-07-28T13:34:10.540Z,12.93
2018-07-28T13:36:39.329Z,13.00
2018-07-28T13:39:08.885Z,12.43
2018-07-28T13:41:37.876Z,12.17
2018-07-28T13:44:06.889Z,13.53
2018-07-28T13:46:35.708Z,14.00
2018-07-28T13:49:04.914Z,14.10
2018-07-28T13:51:33.894Z,13.53
2018-07-28T13:54:02.732Z,13.37
2018-07-28T13:56:31.573Z,14.13
2018-07-28T13:59:00.470Z,13.40
2018-07-28T14:01:29.315Z,13.90
2018-07-28T14:03:58.155Z,14.47
2018-07-28T14:06:27.001Z,14.03
2018-07-28T14:08:55.828Z,13.17
2018-07-28T14:11:24.662Z,13.40
2018-07-28T14:13:53.741Z,13.47
2018-07-28T14:16:22.589Z,12.97
2018-07-28T14:18:51.475Z,12.93
2018-07-28T14:21:20.297Z,13.53
2018-07-28T14:23:49.094Z,12.97
2018-07-28T14:26:17.938Z,13.20
2018-07-28T14:28:46.759Z,13.10
2018-07-28T14:31:15.538Z,13.70
2018-07-28T14:33:44.431Z,14.30
2018-07-28T14:36:13.218Z,12.37
2018-07-28T14:38:42.054Z,13.80
2018-07-28T14:41:10.878Z,14.00
2018-07-28T14:43:39.681Z,13.90
2018-07-28T14:46:08.513Z,13.70
2018-07-28T14:48:37.340Z,12.53
2018-07-28T14:51:06.185Z,13.57
2018-07-28T14:53:34.974Z,13.83
2018-07-28T14:56:03.750Z,13.40
2018-07-28T14:58:32.693Z,14.03
2018-07-28T15:01:01.478Z,13.53
2018-07-28T15:03:30.259Z,13.40
2018-07-28T15:05:59.185Z,12.17
2018-07-28T15:08:27.951Z,13.93
2018-07-28T15:10:56.734Z,12.70
2018-07-28T15:13:25.587Z,13.73
2018-07-28T15:15:54.379Z,13.17
2018-07-28T15:18:23.173Z,13.73
2018-07-28T15:20:52.144Z,12.20
2018-07-28T15:23:20.969Z,10.80
2018-07-28T15:25:49.811Z,10.77
2018-07-28T15:28:18.643Z,14.10
2018-07-28T15:30:47.442Z,13.63
2018-07-28T15:33:16.230Z,12.87
2018-07-28T15:35:45.020Z,12.40
2018-07-28T15:38:13.821Z,12.67
2018-07-28T15:40:42.653Z,12.20
2018-07-28T15:43:11.441Z,12.47
2018-07-28T15:45:40.282Z,11.90
2018-07-28T15:48:09.135Z,12.13
2018-07-28T15:50:37.877Z,12.73
2018-07-28T15:53:06.749Z,12.30
2018-07-28T15:55:35.556Z,11.97
2018-07-28T15:58:04.521Z,12.57
2018-07-28T16:00:33.338Z,11.97
2018-07-28T16:03:02.162Z,12.67
2018-07-28T16:05:31.048Z,12.47
2018-07-28T16:07:59.969Z,11.87
2018-07-28T16:10:28.813Z,11.30
2018-07-28T16:12:57.602Z,12.07
2018-07-28T16:15:26.377Z,11.77
2018-07-28T16:17:55.164Z,10.80
2018-07-28T16:20:24.043Z,10.50
2018-07-28T16:22:52.956Z,10.60
2018-07-28T16:25:21.773Z,10.70
2018-07-28T16:27:50.627Z,11.27
2018-07-28T16:30:19.427Z,11.50
2018-07-28T16:32:48.288Z,10.83
2018-07-28T16:35:17.096Z,11.23
2018-07-28T16:37:45.997Z,10.47
2018-07-28T16:40:15.030Z,11.37
2018-07-28T16:42:43.848Z,10.10
2018-07-28T16:45:12.668Z,10.17
2018-07-28T16:47:41.552Z,10.80
2018-07-28T16:50:10.565Z,10.57
2018-07-28T16:52:39.527Z,9.93
2018-07-28T16:55:08.388Z,10.50
2018-07-28T16:57:37.263Z,10.43
2018-07-28T17:00:06.431Z,10.37
2018-07-28T17:02:35.236Z,10.70
2018-07-28T17:05:04.317Z,10.43
2018-07-28T17:07:33.150Z,10.80
2018-07-28T17:10:01.984Z,10.63
2018-07-28T17:12:30.801Z,10.00
2018-07-28T17:14:59.631Z,9.60
2018-07-28T17:17:28.441Z,10.60
2018-07-28T17:19:57.267Z,9.67
2018-07-28T17:22:26.163Z,10.10
2018-07-28T17:24:54.991Z,10.17
2018-07-28T17:27:23.880Z,9.63
2018-07-28T17:29:52.780Z,9.30
2018-07-28T17:32:21.662Z,9.73
2018-07-28T17:34:50.461Z,9.77
2018-07-28T17:37:19.273Z,10.00
2018-07-28T17:39:48.047Z,9.90
2018-07-28T17:42:17.004Z,8.93
2018-07-28T17:44:45.870Z,9.73
2018-07-28T17:47:14.689Z,9.53
2018-07-28T17:49:43.477Z,10.10
2018-07-28T17:52:12.309Z,9.67
2018-07-28T17:54:41.084Z,10.83
2018-07-28T17:57:09.949Z,9.70
2018-07-28T17:59:38.754Z,10.00
2018-07-28T18:02:07.585Z,9.80
2018-07-28T18:04:36.483Z,10.07
2018-07-28T18:07:05.442Z,9.87
2018-07-28T18:09:34.301Z,9.47
2018-07-28T18:12:03.124Z,8.90
2018-07-28T18:14:31.965Z,9.67
2018-07-28T18:17:00.757Z,10.03
2018-07-28T18:19:29.601Z,9.60
2018-07-28T18:21:58.386Z,10.03
2018-07-28T18:24:27.173Z,10.30
2018-07-28T18:26:56.123Z,9.40
2018-07-28T18:29:24.930Z,9.67
2018-07-28T18:31:53.841Z,9.60
2018-07-28T18:34:22.638Z,9.67
2018-07-28T18:36:51.501Z,9.53
2018-07-28T18:39:20.323Z,10.10
2018-07-28T18:41:49.166Z,10.70
2018-07-28T18:44:18.037Z,9.57
2018-07-28T18:46:46.897Z,9.87
2018-07-28T18:49:15.694Z,8.87
2018-07-28T18:51:44.499Z,10.03
2018-07-28T18:54:13.367Z,9.17
2018-07-28T18:56:42.262Z,9.53
2018-07-28T18:59:11.081Z,10.00
2018-07-28T19:01:39.986Z,9.37
2018-07-28T19:04:08.858Z,9.50
2018-07-28T19:06:37.680Z,9.67
2018-07-28T19:09:13.350Z,9.83
2018-07-28T19:11:42.933Z,8.93
2018-07-28T19:14:16.909Z,9.03
2018-07-28T19:16:46.273Z,9.33
2018-07-28T19:19:16.553Z,9.57
2018-07-28T19:21:46.193Z,9.70
2018-07-28T19:24:15.028Z,9.77
2018-07-28T19:26:43.857Z,8.87
2018-07-28T19:29:17.860Z,9.93
2018-07-28T19:31:53.707Z,9.57
2018-07-28T19:34:22.502Z,9.60
2018-07-28T19:37:07.306Z,9.20
2018-07-28T19:39:36.169Z,9.33
2018-07-28T19:42:10.221Z,9.53
2018-07-28T19:44:39.152Z,9.63
2018-07-28T19:47:08.014Z,10.07
2018-07-28T19:49:36.812Z,10.00
2018-07-28T19:52:05.649Z,9.80
2018-07-28T19:54:34.482Z,9.90
2018-07-28T19:57:03.331Z,9.50
2018-07-28T19:59:32.182Z,10.07
2018-07-28T20:02:01.012Z,9.20
2018-07-28T20:04:29.865Z,10.00
2018-07-28T20:06:58.672Z,9.53
2018-07-28T20:09:27.508Z,10.17
2018-07-28T20:11:56.334Z,9.57
2018-07-28T20:14:25.182Z,9.93
2018-07-28T20:16:54.047Z,10.50
2018-07-28T20:19:22.884Z,10.40
2018-07-28T20:21:51.732Z,10.50
2018-07-28T20:24:20.536Z,10.10
2018-07-28T20:26:49.355Z,11.10
2018-07-28T20:29:18.116Z,11.27
2018-07-28T20:31:46.961Z,10.17
2018-07-28T20:34:15.777Z,11.20
2018-07-28T20:36:44.604Z,11.37
2018-07-28T20:39:13.859Z,10.87
2018-07-28T20:41:42.749Z,10.13
2018-07-28T20:44:11.748Z,10.93
2018-07-28T20:46:40.640Z,10.30
2018-07-28T20:49:09.479Z,10.20
2018-07-28T20:51:38.345Z,9.93
2018-07-28T20:54:07.582Z,10.07
2018-07-28T20:56:36.479Z,10.30
2018-07-28T20:59:05.278Z,10.33
2018-07-28T21:01:34.115Z,10.30
2018-07-28T21:04:02.971Z,10.73
2018-07-28T21:06:31.990Z,10.27
2018-07-28T21:09:00.817Z,10.37
2018-07-28T21:11:29.948Z,10.30
2018-07-28T21:13:58.754Z,10.60
2018-07-28T21:16:27.635Z,10.33
2018-07-28T21:18:56.424Z,10.10
2018-07-28T21:21:25.226Z,10.30
2018-07-28T21:23:54.041Z,11.43
2018-07-28T21:26:22.891Z,9.93
2018-07-28T21:28:51.713Z,11.53
2018-07-28T21:31:20.577Z,10.47
2018-07-28T21:33:49.417Z,9.70
2018-07-28T21:36:18.256Z,10.60
2018-07-28T21:38:47.070Z,10.53
2018-07-28T21:41:15.879Z,10.83
2018-07-28T21:43:44.723Z,10.80
2018-07-28T21:46:13.547Z,10.63
2018-07-28T21:48:42.338Z,10.83
2018-07-28T21:51:11.158Z,9.80
2018-07-28T21:53:40.007Z,11.00
2018-07-28T21:56:08.841Z,10.57
2018-07-28T21:58:37.686Z,11.37
2018-07-28T22:01:13.568Z,10.60
2018-07-28T22:03:42.537Z,10.73
2018-07-28T22:06:11.349Z,11.40
2018-07-28T22:08:40.165Z,11.23
2018-07-28T22:11:09.067Z,11.23
2018-07-28T22:13:37.916Z,11.23
2018-07-28T22:16:06.794Z,11.57
2018-07-28T22:18:35.679Z,12.50
2018-07-28T22:21:04.544Z,12.60
2018-07-28T22:23:33.375Z,12.83
2018-07-28T22:26:02.220Z,12.47
2018-07-28T22:28:31.128Z,11.73
2018-07-28T22:30:59.965Z,13.03
2018-07-28T22:33:28.822Z,12.73
2018-07-28T22:35:57.633Z,12.80
2018-07-28T22:38:26.544Z,13.00
2018-07-28T22:40:55.376Z,13.93
2018-07-28T22:43:24.180Z,14.67
2018-07-28T22:45:53.040Z,16.40
2018-07-28T22:48:21.913Z,15.10
2018-07-28T22:50:50.729Z,15.40
2018-07-28T22:53:19.533Z,14.17
2018-07-28T22:55:48.344Z,13.17
2018-07-28T22:58:17.187Z,14.17
2018-07-28T23:00:46.054Z,14.13
2018-07-28T23:03:14.868Z,13.63
2018-07-28T23:05:43.719Z,14.37
2018-07-28T23:08:12.565Z,15.33
2018-07-28T23:10:41.576Z,14.60
2018-07-28T23:13:10.406Z,15.70
2018-07-28T23:15:39.226Z,15.17
2018-07-28T23:18:08.203Z,14.60
2018-07-28T23:20:37.014Z,14.97
2018-07-28T23:23:05.812Z,14.83
2018-07-28T23:25:34.653Z,15.70
2018-07-28T23:28:03.476Z,14.53
2018-07-28T23:30:32.328Z,14.67
2018-07-28T23:33:01.155Z,15.83
2018-07-28T23:35:29.970Z,15.50
2018-07-28T23:37:58.762Z,15.23
2018-07-28T23:40:27.603Z,16.53
2018-07-28T23:42:56.385Z,15.93
2018-07-28T23:45:25.185Z,16.97
2018-07-28T23:47:54.010Z,16.53
2018-07-28T23:50:22.850Z,16.67
2018-07-28T23:52:51.670Z,17.20
2018-07-28T23:55:20.476Z,16.77
2018-07-28T23:57:49.302Z,17.17
